Bucholz AAF Airport (KWA/PKWA)



Flight Aircraft Arriving
CPX2392 B752
PHNL - Daniel K Inouye International Airport
United StatesHawaii Honolulu, Hawaii
Flight Aircraft Departing
CPX2391 B752
PHNL - Daniel K Inouye International Airport
United StatesHawaii Honolulu, Hawaii


Airport Information
Location: Kwajalein Atoll, Marshall Islands
Coordinates: 8.72013 / 167.732
Field Elevation: 6ft
Longest Runway: 6,667ft
ILS Approaches: NO
Landing Fees: $144 per flight
Jet A Price: $0.25/lbs

Current Weather
METAR: PKWA 160040Z AUTO 09011KT 7SM -RA SCT085 OVC110 26/23 A2987 RMK AO2 P0004 T02560233
TAF: PKWA 152342Z 1600/1624 08015G25KT P6SM VCSH SCT016 SCT060 OVC100 TEMPO 1600/1604 4SM SHRA SCT025 BKN035

Recent Arrivals
Date Flight Type Depart
03/25/2019 CMB811 B752 Daniel K Inouye International Airport (PHNL)
Recent Departures
Date Flight Type Arrive
03/26/2019 CMB812 B752 Daniel K Inouye International Airport (PHNL)